Kcmh metar.

METAR KCMH 262151Z VRB05KT 10SM FEW050 14/00 A3013 RMK AO2 SLP205 T01440000. There is little or no wind from a variable direction. Visibility is 10 mi. No ceiling has been observed. The temperature and wind chill are 14 °C. Mount Carmel East Hospital Heliport 28OI · Ohio, United States.

Kcmh metar. Things To Know About Kcmh metar.

KCMH METAR TAF AREA METARS AREA TAFS 1 AIRMET KCMH. UTC. John Glenn Columbus International Airport Columbus, Ohio, United States. TAF Report. KCMH 291745Z 2918/3018 21014G22KT P6SM FEW050 BKN250 FM300000 20009KT P6SM SCT070 OVC200 FM300400 26006KT P6SM -SHRA SCT015 OVC050 FM300700 …METAR KCMH 181551Z 27003KT 10SM SCT250 18/09 A3008 RMK AO2 SLP185 T01780089. The wind is from direction 270° with a speed of 3 kt. Visibility is 10 mi. No ceiling has been observed. The temperature and wind chill are 18 °C.Medical Services We specialise in medical treatment and services with the most efficient technology Donation Become a part of helping patients Chulalongkorn Hospital Moral Medical School Hospital New dimension of giving for all life Special Medical Clinic Another option of service to satify patients need 'New dimension Bhumisiri Mangkhalanusorn Building of giving for all life' CHULA COVID-19 NewsIn the METAR you will also find the air pressure at the mean sea level (QNH). This is calculated by recalculating the air pressure at terrain height (QFE) back to sea level. Air pressure can be expressed in inches of mercury (preceded by an A) or hectopascals (preceded by a Q). A2994 means air pressure of 29.94 inHg.

KCMH METAR Weather: KCMH 020351Z 12003KT 10SM FEW055 FEW250 19/15 A2997 RMK AO2 SLP142 T01940150 KCMH Flight Activity (FlightAware) KCMH Webcam: KCMH Airport Info (iFlightPlanner) KCMH App/Dep (118.2) Feed Status: UP Listeners: 0 (in browser, HTML5) (launches your MP3 player)Trader Joe's and Pepperidge Farm settled their lawsuit over the former's Milano-like cookies. By clicking "TRY IT", I agree to receive newsletters and promotions from Money and its...METAR Grant County International Airport - KMWH/MWH. Grant County International Airport is a midsized airport in Washington, United States. The airport is located at latitude 47.21062 and longitude -119.32105. The airport has 5 runways: 14L/32R, 4/22, 9/27, 14R/32L and 18/36. The ICAO airport code of this field is KMWH.

METAR Mojave Air & Space Port/Rutan Field - KMHV/MHV. Mojave Air & Space Port/Rutan Field is a midsized airport in California, United States. The airport is located at latitude 35.05998 and longitude -118.15269. The airport has 3 runways: 4/22, 8/26 and 12/30.METAR KCMH 031951Z 15005KT 10SM FEW065 30/16 A3014 RMK AO2 SLP200 T03000156. The wind is from direction 150° with a speed of 5 kt. Visibility is 10 mi. No ceiling has been observed. The temperature and wind chill are 30 °C.

Learn more at faa.gov/uas. Make your Flight Plan at SkyVector.com. SkyVector is a free online flight planner. Flight planning is easy on our large collection of Aeronautical Charts, including Sectional Charts, Approach Plates, IFR Enroute Charts, and Helicopter route charts. Weather data is always current, as are Jet Fuel Prices and avgas 100ll ... Make your Flight Plan at SkyVector.com. SkyVector is a free online flight planner. Flight planning is easy on our large collection of Aeronautical Charts, including Sectional Charts, Approach Plates, IFR Enroute Charts, and Helicopter route charts. Weather data is always current, as are Jet Fuel Prices and avgas 100ll prices.METAR KCMH 170751Z 17005KT 10SM FEW120 OVC150 22/12 A2988 RMK AO2 SLP110 T02220122. The wind is from direction 170° with a speed of 5 kt. Visibility is 10 mi. The ceiling, broken or more, is 15,000 ft. The temperature and wind chill are 22 °C.All METARmaps™ are built to order. Please allow 4-6 weeks for us to create and ship your new METAR map. Note that lead times will vary by season. A printable METARmaps GIFT NOTE can be sent if you are ordering late. Placed in your festive holiday envelope, it will illicit cries of joy and adulation as attested to by former Gift Note ...

U.S. DEPARTMENT OF COMMERCE - NATIONAL OCEANIC AND ATMOSPHERIC ADMINISTRATION - National Weather Service - Observing Systems Branch, 1325 East-West Highway, Silver Spring, Maryland 20910 NWS/NOAA AviationWeather.gov (METAR/TAF results displayed on NWS Aviationweather.gov page) (button press takes you to AviationWeather.gov METAR results)

I have one single productivity app on my iPhone that I open regularly: the note-taking app Drafts. Other than that, I don't use my phone for anything that resembles productivity—I ...

METAR KCMH 021451Z 00000KT 10SM CLR 23/17 A3028 RMK AO2 SLP247 T02330172 51002. There is little or no wind from a variable direction. Visibility is 10 mi. ... (9.7 NM) METAR KLCK - Rickenbacker International Airport (11 NM) METAR TAF KTZR - Bolton Field (13 NM) METAR KLHQ - Fairfield County (18 NM) METAR. 2 October 10:51 LT 3dThe airline is in talks to sell off a stake of it to foreign investors. Kenya Airways, once one of Africa’s leading airlines and a symbol of Kenyan pride, is struggling. The compan...METAR KCMH 190651Z 13008KT 10SM FEW080 FEW110 OVC200 18/07 A2983 RMK AO2 SLP097 T01830072. The wind is from direction 130° with a speed of 8 kt. Visibility is 10 mi. The ceiling, broken or more, is 20,000 ft. …METAR KCMH 172128Z 24019G35KT 10SM TS BKN055CB BKN090 OVC110 24/14 A2974 RMK AO2 PK WND 21035/2124 LTG DSNT ALQDS TSB26 PRESRR FRQ LTGCCCG TS W-N MOV E T02440139 $. Current weather is thunderstorms .The wind is from direction 240° with a speed of 19 kt. Visibility is 10 mi. The ceiling, broken or more, is 5,500 ft. The …METAR Menorca Airport - LEMH/MAH . Menorca Airport is a midsized airport in Illes Balears, Balearic Islands, Spain. The airport is located at latitude 39.86172 and longitude 4.21847. The airport has one runway: 1/19. The ICAO airport code of this field is LEMH. The airport's IATA code is MAH.METAR KTZR 241055Z AUTO 02005KT 10SM OVC060 11/06 A3019 RMK AO2 T01100057. The wind is from direction 020° with a speed of 5 kt. Visibility is 10 mi. The ceiling, broken or more, is 6,000 ft. ... (KCMH) KTZR. KCMH - John Glenn Columbus International Airport. KOSU - The Ohio State University Airport - Don Scott Field ...

METAR - Current. 49 minutes ago. KCMH 061751Z 33010KT 10SM OVC005 11/10 A2990 RMK AO2 RAE22 SLP126 P0001 60012 T01060100 10128 20106 58008. Observed. Mar …METAR KCMH 172351Z 34019G23KT 7SM -DZ OVC009 10/10 A2987 RMK AO2 WSHFT 2301 RAB08E23DZB48 SLP114 FROPA P0000 60013 T01000100 10150 20100 53016. Current weather is light drizzle.The wind is from direction 340° with a speed of 19 kt. Visibility is 7 mi. The ceiling, broken or more, is 900 ft. The temperature is 10 °C, with a wind chill of 5 °C.METAR KCMH 180851Z 28009KT 10SM OVC034 13/08 A2999 RMK AO2 SLP152 T01330083 53013 $. The wind is from direction 280° with a speed of 9 kt. Visibility is 10 mi. The ceiling, broken or more, is 3,400 ft. The temperature and wind chill are 13 °C.METAR KCMH 181051Z 29007KT 10SM BKN033 13/08 A3002 RMK AO2 SLP164 T01280078 $. The wind is from direction 290° with a speed of 7 kt. Visibility is 10 mi. The ceiling, broken or more, is 3,300 ft. The temperature and wind chill are 13 °C.880 FTUS41 KILN 020523 TAFCMH TAF KCMH 020523Z 0206/0306 VRB03KT P6SM SCT250 FM021500 18006KT P6SM SCT040 FM030100 VRB03KT P6SM SCT250= US Dept of Commerce; National Oceanic and Atmospheric Administration; National Weather Service; 1325 East West Highway; Silver Spring, MD 20910; Comments? Questions? Please Contact Us.

Detailed Forecast. Overnight. A chance of showers, with thunderstorms also possible after 5am. Mostly cloudy, with a low around 63. South wind around 8 mph. Chance of precipitation is 30%. New rainfall amounts between a tenth and quarter of an inch, except higher amounts possible in thunderstorms. Wednesday.

METAR KCMH 190651Z 13008KT 10SM FEW080 FEW110 OVC200 18/07 A2983 RMK AO2 SLP097 T01830072. The wind is from direction 130° with a speed of 8 kt. Visibility is 10 mi. The ceiling, broken or more, is 20,000 ft. The temperature and wind chill are 18 °C.I don’t care how many Hitman games IO Interactive cranks out, I’ll play every single one of them, even though all of them involve doing the exact same thing: poring over sprawling ...Temperature 63 °F. Humidity 88 % Pressure 29.97 in. Hg. Visibility: 10 miles. Broken clouds at a height of 25000 ft. Change units. METAR: KCMH 020551Z 13003KT 10SM BKN250 17/15 A2997 RMK AO2 SLP144 T01720150 10261 20172 51004. Time: 02:07 (06:07 UTC) Forecast. The report was made 44 minutes ago, at 05:23 UTC.airspace uas wi an area defined as 391949n0851532w (0.8nm s hlb) to 391942n0851123w (3.3nm ese hlb) to 391702n0850907w (6.1nm se hlb) to 391520n0851225w (5.8nm sse hlb) to 391639n0851640w (4.0nm ssw hlb) to point of origin sfc-400ft agl fri-tue 00..Get the latest aviation weather reports and forecasts for KLZU station, including METARs and TAFs, with easy-to-read translations and plots.Approach. 119.15 MHz. Columbus Approach. Warning: Do not use this data for real-world aviation or navigation. No guarantee of current accuracy is given. Airport information for Columbus-John Glenn Intl (KCMH) in , including runways, map, navaids, weather (METAR/TAF) and ATC frequencies. For flight simulation use only.METAR KCMH 190751Z 24008KT 10SM BKN090 OVC120 18/08 A2986 RMK AO2 SLP107 T01780083. The wind is from direction 240° with a speed of 8 kt. Visibility is 10 mi. The ceiling, broken or more, is 9,000 ft. The temperature and wind chill are 18 °C.

Don't have an account yet? Sign up for free!. English . English Nederlands Español Deutsch Français Italiano Português Polski 中文 Nederlands Español Deutsch

METAR KCLE 031430Z 10005KT 10SM TS SCT060CB BKN140 BKN250 18/11 A2997 RMK AO2 LTG DSNT SE TSB29 OCNL LTGCGICCC SE-S TS SE-S MOV NE T01830106. Current weather is thunderstorms .The wind is from direction 100° with a speed of 5 kt. Visibility is 10 mi. The ceiling, broken or more, is 14,000 ft. The temperature and wind chill are 18 °C.

METAR KCMH 031951Z 15005KT 10SM FEW065 30/16 A3014 RMK AO2 SLP200 T03000156. The wind is from direction 150° with a speed of 5 kt. Visibility is 10 …Get the latest aviation weather forecasts and observations for KCVG airport, including translated TAFs and METARs, from the Aviation Weather Center.In the METAR you will also find the air pressure at the mean sea level (QNH). This is calculated by recalculating the air pressure at terrain height (QFE) back to sea level. Air pressure can be expressed in inches of mercury (preceded by an A) or hectopascals (preceded by a Q). A2994 means air pressure of 29.94 inHg.METAR - Current. 49 minutes ago. KCMH 061751Z 33010KT 10SM OVC005 11/10 A2990 RMK AO2 RAE22 SLP126 P0001 60012 T01060100 10128 20106 58008. Observed. Mar …A METAR will always start with a 4 letter designator. This will match the four-letter ICAO designator of the airport in question. The above METAR corresponds to Baltimore airport. There are actually hundreds of these ICAO codes used throughout the USA. Why it is important in a METAR - It should be obvious.METAR KCMH 110651Z 00000KT 10SM CLR 18/17 A2995 RMK AO2 SLP137 T01830167. There is little or no wind from a variable direction. Visibility is 10 mi. ... (9.7 NM) METAR KLCK - Rickenbacker International Airport (11 NM) METAR TAF KTZR - Bolton Field (13 NM) METAR KLHQ - Fairfield County (18 NM) METAR. 11 July 02:51 LT 2hMETAR KCMH 180551Z 28007KT 10SM OVC049 16/11 A2995 RMK AO2 SLP138 T01560106 10194 20139 53014 $. The wind is from direction 280° with a speed of 7 kt. Visibility is 10 mi. The ceiling, broken or more, is 4,900 ft. The temperature and wind chill are 16 °C.PIREP Description A Pilot Report or PIREP is a report of the actual weather conditions as encountered by an aircraft in flight. Traditionally, these reports are transmitted by radio to an appropriate ground station for dissemination but, when necessary, they can be made by telephone after landing. More recently, appropriately equipped aircraft can automatically send meteorological reports ...METAR Amsterdam Airport Schiphol - EHAM/AMS. Amsterdam Airport Schiphol is a large airport in North Holland, Netherlands. The airport is located at latitude 52.31488 and longitude 4.75807. The airport has 6 runways: 18L/36R, 18C/36C, 18R/36L, 4/22, 6/24 and 9/27. The ICAO airport code of this field is EHAM.METAR KCMH 190551Z 14009KT 10SM OVC200 19/07 A2987 RMK AO2 SLP109 T01890072 10211 20167 56029. The wind is from direction 140° with a speed of 9 kt. Visibility is 10 mi. The ceiling, broken or more, is 20,000 ft. The temperature and wind chill are 19 °C.

METAR KCMH 171051Z 17009KT 10SM BKN045 BKN075 OVC095 18/15 A2992 RMK AO2 RAE28 SLP126 P0001 T01780150. The wind is from direction 170° with a speed of 9 kt. Visibility is 10 mi. The ceiling, broken or more, is 4,500 ft. The temperature and wind chill are 18 °C. Station Type Date Time Source; KCMH: Decoded METAR: 2023/12/01: 17:36 UTC: NOAA: PORT COLUMBUS INTERNATIONAL AIRPORT, OH, United States (KCMH) 40-00N 82-53W 247M KCMH METAR Weather: KCMH 020651Z 00000KT 10SM SCT250 17/14 A2997 RMK AO2 SLP144 T01670144 KCMH Flight Activity (FlightAware) KCMH Webcam: KCMH Airport Info (iFlightPlanner) KCMH App/Dep (134.0) Feed Status: UP Listeners: 1 (in browser, HTML5) (launches your MP3 player) KCMH App/Dep (134.0) Audio Archives:KCMH METAR Weather: KCMH 220151Z 00000KT 10SM FEW055 08/M02 A3011 RMK AO2 SLP201 T00781022 KCMH Flight Activity (FlightAware) KCMH Webcam: KCMH Airport Info (iFlightPlanner) KCMH Del/Gnd/Twr: Feed Status: UP Listeners: 1 (in browser, HTML5) (launches your MP3 player) KCMH Del/Gnd/Twr Audio Archives:Instagram:https://instagram. tulare county public assistance informationmideast robeholland state park water temperaturecomo funciona la tarjeta healthy savings metar kcmh 080551z 05004kt 10sm -ra sct060 bkn070 ovc090 12/02 a3004 rmk ao2 rab42 slp172 p0000 60000 t01170022 10150 20117 53007 $ Donate and remove ads Will you help us to keep Metar-Taf.com running?6,500 ft. 360°. 0 kt. METAR KPMH 240625Z AUTO 00000KT 7SM RA SCT044 SCT055 OVC065 13/10 A2995 RMK AO2. 02:02. V. 13 °C. 7 mi. 6,500 ft. hesi case studies breathing patternsgrifols plasma center moreno valley ca METAR KCMH 172051Z 20019G28KT 10SM SCT050 SCT065 BKN095 24/14 A2970 RMK AO2 PK WND 18037/2016 LTG DSNT W-N SLP050 VCSH W-NW T02440139 56029 $. The wind is from direction 200° with a speed of 19 kt. Visibility is 10 mi. The ceiling, broken or more, is 9,500 ft. The temperature and wind chill are 24 °C.Aviation Weather Forecast at Columbus, OhioStation: KCMH North: 40.00 West: -82.88 Timezone: Eastern Daylight Saving Time UTC: -4 Model: National Blend of Models - Aviation Format. The Raw Data used in this forecast was obtained from the National Weather Service's National Blend of Models and is not subject to copyright protection. how much does champs sports pay METAR KCMH 240551Z 28008KT 10SM OVC065 05/M02 A3012 RMK AO2 SLP203 T00501017 10072 20050 56003 $. The wind is from direction 280° with a speed of 8 kt. Visibility is 10 mi. The ceiling, broken or more, is 6,500 ft. John Glenn Columbus International Airport KCMH · Ohio, United States.METAR KCMH 180551Z 28007KT 10SM OVC049 16/11 A2995 RMK AO2 SLP138 T01560106 10194 20139 53014 $. The wind is from direction 280° with a speed of 7 kt. Visibility is 10 mi. The ceiling, broken or more, is 4,900 ft. The temperature and wind chill are 16 °C.METAR Date & Time. 220136Z. The first two digits 22 refers to the day of the month. The next 4 digits 0136 refers to the time when the report was made. The Z refers to ZULU or UTC time. METAR Modifier (If any) Sometimes the METAR will have a COR or AUTO modifier after the Date & Time. COR means it is a corrected report and AUTO refers to an ...